Time;durP1;ratioP1;P1;durP2;ratioP2;P2;SDS_P1;SDS_P2;PMS_P1;PMS_P2;Temp;Humidity;BMP_temperature;BMP_pressure;BME280_temperature;BME280_humidity;BME280_pressure;Samples;Min_cycle;Max_cycle;Signal;HPM_P1;HPM_P2
2023/07/04 00:02:04;;;;;;;25.52;23.08;;;15.50;99.90;;;;;;4992570;28;20734;-69
2023/07/04 00:04:31;;;;;;;26.90;24.27;;;15.40;99.90;;;;;;4994218;28;20080;-69
2023/07/04 00:07:00;;;;;;;26.67;24.02;;;15.40;99.90;;;;;;4992077;28;20587;-68
2023/07/04 00:09:27;;;;;;;27.55;24.60;;;15.40;99.90;;;;;;4990643;28;20050;-68
2023/07/04 00:11:53;;;;;;;27.17;24.30;;;15.30;99.90;;;;;;4992211;28;20108;-69
2023/07/04 00:14:20;;;;;;;25.40;23.00;;;15.30;99.90;;;;;;4989806;28;20062;-69
2023/07/04 00:16:48;;;;;;;25.80;23.13;;;15.20;99.90;;;;;;4995497;28;20042;-69
2023/07/04 00:19:15;;;;;;;25.38;23.17;;;15.20;99.90;;;;;;4990665;28;20720;-68
2023/07/04 00:21:41;;;;;;;30.92;22.75;;;15.20;99.90;;;;;;4992687;28;20604;-70
2023/07/04 00:24:10;;;;;;;24.95;22.75;;;15.20;99.90;;;;;;4997661;28;20053;-70
2023/07/04 00:26:36;;;;;;;28.73;23.13;;;15.20;99.90;;;;;;4988868;28;20089;-68
2023/07/04 00:29:03;;;;;;;25.55;23.10;;;15.20;99.90;;;;;;4990492;28;20720;-70
2023/07/04 00:31:30;;;;;;;25.35;22.88;;;15.20;99.90;;;;;;4989222;28;20144;-67
2023/07/04 00:33:57;;;;;;;24.92;22.73;;;15.20;99.90;;;;;;4991705;28;20071;-68
2023/07/04 00:36:25;;;;;;;26.30;23.70;;;15.20;99.90;;;;;;4973041;28;20051;-70
2023/07/04 00:38:57;;;;;;;25.30;22.95;;;15.20;99.90;;;;;;4994644;28;20046;-68
2023/07/04 00:41:27;;;;;;;24.80;22.48;;;15.20;99.90;;;;;;5006014;28;20042;-67
2023/07/04 00:44:00;;;;;;;25.42;23.23;;;15.20;99.90;;;;;;5019186;28;20050;-68
2023/07/04 00:46:40;;;;;;;24.63;22.20;;;15.20;99.90;;;;;;5016763;28;20049;-69
2023/07/04 00:49:18;;;;;;;25.08;22.73;;;15.20;99.90;;;;;;4996868;28;20052;-68
2023/07/04 00:52:03;;;;;;;25.95;23.45;;;15.20;99.90;;;;;;4993295;28;20073;-70
2023/07/04 00:54:35;;;;;;;25.73;23.52;;;15.10;99.90;;;;;;4993597;28;20100;-69
2023/07/04 00:57:06;;;;;;;25.27;22.80;;;15.10;99.90;;;;;;4995619;28;20038;-69
2023/07/04 00:59:43;;;;;;;26.42;23.67;;;15.10;99.90;;;;;;4996271;28;20073;-69
2023/07/04 01:02:12;;;;;;;26.00;23.33;;;15.20;99.90;;;;;;4994833;28;20052;-68
2023/07/04 01:04:40;;;;;;;24.95;23.00;;;15.30;99.90;;;;;;4995107;28;20055;-70
2023/07/04 01:07:37;;;;;;;24.40;21.98;;;15.30;99.90;;;;;;4996289;28;20049;-69
2023/07/04 01:10:17;;;;;;;23.70;21.70;;;15.30;99.90;;;;;;4993436;28;20046;-68
2023/07/04 01:12:44;;;;;;;24.17;22.27;;;15.30;99.90;;;;;;4994814;28;20603;-68
2023/07/04 01:15:12;;;;;;;24.52;22.08;;;15.20;99.90;;;;;;4995992;28;20042;-68
2023/07/04 01:17:42;;;;;;;24.80;22.27;;;15.20;99.90;;;;;;4984049;28;20029;-68
2023/07/04 01:20:12;;;;;;;25.13;22.83;;;15.20;99.90;;;;;;4998873;28;20232;-68
2023/07/04 01:23:10;;;;;;;96.25;32.67;;;15.20;99.90;;;;;;4997909;28;20672;-68
2023/07/04 01:26:13;;;;;;;24.00;21.92;;;15.20;99.90;;;;;;4995354;28;20046;-69
2023/07/04 01:28:41;;;;;;;24.85;22.55;;;15.20;99.90;;;;;;4995405;28;20050;-69
2023/07/04 01:31:08;;;;;;;24.23;22.05;;;15.20;99.90;;;;;;4995779;28;20038;-69
2023/07/04 01:33:40;;;;;;;25.40;23.20;;;15.20;99.90;;;;;;4993843;28;20622;-70
2023/07/04 01:36:11;;;;;;;24.58;22.20;;;15.20;99.90;;;;;;4993942;28;20034;-68
2023/07/04 01:38:38;;;;;;;25.23;22.92;;;15.20;99.90;;;;;;4993336;28;20536;-69
2023/07/04 01:41:04;;;;;;;25.65;23.00;;;15.20;99.90;;;;;;4995169;28;20038;-68
2023/07/04 01:43:31;;;;;;;25.40;22.88;;;15.20;99.90;;;;;;4998007;28;20644;-70
2023/07/04 01:46:01;;;;;;;27.15;23.30;;;15.20;99.90;;;;;;4994572;28;20065;-70
2023/07/04 01:48:30;;;;;;;26.08;23.42;;;15.20;99.90;;;;;;4994799;28;20058;-70
2023/07/04 01:50:56;;;;;;;25.65;23.30;;;15.20;99.90;;;;;;4991337;28;20069;-69
2023/07/04 01:53:23;;;;;;;25.15;22.55;;;15.10;99.90;;;;;;4994389;28;20161;-69
2023/07/04 01:55:50;;;;;;;24.85;22.65;;;15.10;99.90;;;;;;4993820;28;20088;-70
2023/07/04 01:58:17;;;;;;;25.20;22.83;;;15.00;99.90;;;;;;4995818;28;20060;-69
2023/07/04 02:00:43;;;;;;;25.90;23.45;;;15.00;99.90;;;;;;4995128;28;20103;-69
2023/07/04 02:03:10;;;;;;;25.73;23.05;;;14.80;99.90;;;;;;4997644;28;20046;-70
2023/07/04 02:05:38;;;;;;;24.60;22.42;;;14.80;99.90;;;;;;4994204;28;20045;-69
2023/07/04 02:08:05;;;;;;;25.63;23.48;;;14.70;99.90;;;;;;4992744;28;20053;-70
2023/07/04 02:10:31;;;;;;;26.33;23.58;;;14.70;99.90;;;;;;4993096;28;20112;-69
2023/07/04 02:12:58;;;;;;;25.52;23.08;;;14.60;99.90;;;;;;4995315;28;20496;-70
2023/07/04 02:15:25;;;;;;;24.98;22.65;;;14.50;99.90;;;;;;4992581;28;20046;-69
2023/07/04 02:17:52;;;;;;;25.20;22.98;;;14.40;99.90;;;;;;4997024;28;20056;-70
2023/07/04 02:20:20;;;;;;;24.77;22.52;;;14.40;99.90;;;;;;4993989;28;20104;-69
2023/07/04 02:22:47;;;;;;;24.55;22.15;;;14.40;99.90;;;;;;4992937;28;20068;-69
2023/07/04 02:25:14;;;;;;;25.33;22.58;;;14.40;99.90;;;;;;4992834;28;20684;-69
2023/07/04 02:27:41;;;;;;;24.80;22.45;;;14.30;99.90;;;;;;4994508;28;20038;-70
2023/07/04 02:30:08;;;;;;;24.10;21.90;;;14.30;99.90;;;;;;4999915;28;20046;-69
2023/07/04 02:32:35;;;;;;;23.77;21.80;;;14.20;99.90;;;;;;4992958;28;20054;-68
2023/07/04 02:35:04;;;;;;;26.35;22.73;;;14.10;99.90;;;;;;5001146;28;20691;-71
2023/07/04 02:37:31;;;;;;;24.63;22.35;;;14.10;99.90;;;;;;4999674;28;20160;-71
2023/07/04 02:39:58;;;;;;;23.92;21.80;;;14.00;99.90;;;;;;4997858;28;20042;-70
2023/07/04 02:42:26;;;;;;;23.40;21.55;;;14.10;99.90;;;;;;4991585;28;20049;-70
2023/07/04 02:44:55;;;;;;;26.77;21.85;;;14.00;99.90;;;;;;4994762;28;20508;-69
2023/07/04 02:47:26;;;;;;;23.60;21.17;;;14.00;99.90;;;;;;4973553;28;20066;-69
2023/07/04 02:49:55;;;;;;;23.25;21.27;;;13.90;99.90;;;;;;4995086;28;20119;-69
2023/07/04 02:52:25;;;;;;;23.17;21.13;;;13.90;99.90;;;;;;4991580;28;20073;-69
2023/07/04 02:54:52;;;;;;;23.05;21.05;;;13.90;99.90;;;;;;4994308;28;20053;-70
2023/07/04 02:57:19;;;;;;;23.20;21.05;;;13.80;99.90;;;;;;4991508;28;20536;-70
2023/07/04 02:59:46;;;;;;;24.80;21.50;;;13.70;99.90;;;;;;4990833;28;20053;-69
2023/07/04 03:02:14;;;;;;;22.58;20.48;;;13.60;99.90;;;;;;4975459;28;20108;-68
2023/07/04 03:04:42;;;;;;;22.80;20.73;;;13.60;99.90;;;;;;5007419;28;20675;-68
2023/07/04 03:07:09;;;;;;;23.27;21.13;;;13.60;99.90;;;;;;4990615;28;20042;-71
2023/07/04 03:09:37;;;;;;;23.27;21.15;;;13.70;99.90;;;;;;4989801;28;20753;-71
2023/07/04 03:12:04;;;;;;;23.13;20.88;;;13.70;99.90;;;;;;4991989;28;20050;-70
2023/07/04 03:14:32;;;;;;;22.73;21.10;;;13.70;99.90;;;;;;5007936;28;20038;-71
2023/07/04 03:16:58;;;;;;;22.45;20.33;;;13.60;99.90;;;;;;4992027;28;20824;-69
2023/07/04 03:19:26;;;;;;;22.23;20.17;;;13.70;99.90;;;;;;4991443;28;20053;-68
2023/07/04 03:21:54;;;;;;;22.98;20.45;;;13.60;99.90;;;;;;4993268;28;20045;-70
2023/07/04 03:24:22;;;;;;;21.42;19.60;;;13.60;99.90;;;;;;4990334;28;20044;-69
2023/07/04 03:26:49;;;;;;;21.38;19.60;;;13.60;99.90;;;;;;4990771;28;20046;-69
2023/07/04 03:29:18;;;;;;;22.13;19.98;;;13.50;99.90;;;;;;4990916;28;20046;-68
2023/07/04 03:31:45;;;;;;;20.88;18.85;;;13.50;99.90;;;;;;4973743;28;20076;-69
2023/07/04 03:34:13;;;;;;;21.50;19.73;;;13.50;99.90;;;;;;4976000;28;20038;-68
2023/07/04 03:36:39;;;;;;;24.55;22.45;;;13.60;99.90;;;;;;4987987;28;20042;-69
2023/07/04 03:39:07;;;;;;;21.23;19.25;;;13.60;99.90;;;;;;4995326;28;20033;-68
2023/07/04 03:41:34;;;;;;;21.17;19.30;;;13.60;99.90;;;;;;5004904;28;20242;-68
2023/07/04 03:44:01;;;;;;;20.65;18.98;;;13.50;99.90;;;;;;4994491;28;20054;-69
2023/07/04 03:46:28;;;;;;;21.27;19.42;;;13.50;99.90;;;;;;4987053;28;20061;-68
2023/07/04 03:48:54;;;;;;;25.05;22.45;;;13.50;99.90;;;;;;4989947;28;20046;-68
2023/07/04 03:51:21;;;;;;;24.20;22.25;;;13.50;99.90;;;;;;4971207;28;20129;-69
2023/07/04 03:53:48;;;;;;;23.80;21.85;;;13.60;99.90;;;;;;4991714;28;20566;-68
2023/07/04 03:56:16;;;;;;;23.27;21.27;;;13.50;99.90;;;;;;4989605;28;20685;-69
2023/07/04 03:58:43;;;;;;;23.58;21.52;;;13.50;99.90;;;;;;4990046;28;20046;-69
2023/07/04 04:01:09;;;;;;;22.83;20.90;;;13.50;99.90;;;;;;4972706;28;20062;-68
2023/07/04 04:03:38;;;;;;;22.58;20.83;;;13.50;99.90;;;;;;4991914;28;20517;-70
2023/07/04 04:06:07;;;;;;;22.00;20.40;;;13.60;99.90;;;;;;4992666;28;20053;-69
2023/07/04 04:08:34;;;;;;;22.63;20.85;;;13.60;99.90;;;;;;4986282;28;20050;-68
2023/07/04 04:11:02;;;;;;;23.83;21.63;;;13.60;99.90;;;;;;4992717;28;20100;-69
2023/07/04 04:13:29;;;;;;;22.20;20.33;;;13.50;99.90;;;;;;4990256;28;20113;-68
2023/07/04 04:15:56;;;;;;;22.90;20.83;;;13.50;99.90;;;;;;4990121;28;20522;-69
2023/07/04 04:18:23;;;;;;;23.40;21.17;;;13.50;99.90;;;;;;4991148;28;20622;-68
2023/07/04 04:20:49;;;;;;;21.55;19.75;;;13.40;99.90;;;;;;4989289;28;20053;-68
2023/07/04 04:23:17;;;;;;;22.17;20.27;;;13.30;99.90;;;;;;4991227;28;20111;-69
2023/07/04 04:25:45;;;;;;;23.17;20.88;;;13.30;99.90;;;;;;4989852;28;20037;-69
2023/07/04 04:28:13;;;;;;;22.85;20.83;;;13.30;99.90;;;;;;4988911;28;20053;-69
2023/07/04 04:30:40;;;;;;;22.77;20.73;;;13.20;99.90;;;;;;4992123;28;20049;-69
2023/07/04 04:33:07;;;;;;;22.38;20.83;;;13.20;99.90;;;;;;4996517;28;20045;-68
2023/07/04 04:35:38;;;;;;;22.77;20.67;;;13.20;99.90;;;;;;4991711;28;20060;-68
2023/07/04 04:38:05;;;;;;;23.05;21.00;;;13.30;99.90;;;;;;4995894;28;20046;-69
2023/07/04 04:40:33;;;;;;;23.65;21.52;;;13.20;99.90;;;;;;4993972;28;20806;-70
2023/07/04 04:43:00;;;;;;;22.17;20.20;;;13.30;99.90;;;;;;4993093;28;20474;-68
2023/07/04 04:45:28;;;;;;;22.17;20.38;;;13.40;99.90;;;;;;4975977;28;20519;-70
2023/07/04 04:47:55;;;;;;;24.45;22.38;;;13.50;99.90;;;;;;4993334;28;20109;-69
2023/07/04 04:50:24;;;;;;;23.48;21.38;;;13.50;99.90;;;;;;4991860;28;20676;-68
2023/07/04 04:52:51;;;;;;;23.50;21.25;;;13.60;99.90;;;;;;4995769;28;20522;-69
2023/07/04 04:55:19;;;;;;;23.95;21.45;;;13.60;99.90;;;;;;4990449;28;20540;-69
2023/07/04 04:57:46;;;;;;;23.83;21.60;;;13.70;99.90;;;;;;4991277;28;20046;-68
2023/07/04 05:00:13;;;;;;;24.13;21.75;;;13.70;99.90;;;;;;4995002;28;20033;-69
2023/07/04 05:02:39;;;;;;;24.38;22.05;;;13.80;99.90;;;;;;4993836;28;20716;-69
2023/07/04 05:05:06;;;;;;;25.17;22.85;;;13.90;99.90;;;;;;4994863;28;20049;-69
2023/07/04 05:07:34;;;;;;;25.23;22.65;;;13.90;99.90;;;;;;4992108;28;20050;-68
2023/07/04 05:10:02;;;;;;;23.42;21.70;;;14.00;99.90;;;;;;4994573;28;20046;-69
2023/07/04 05:12:29;;;;;;;24.30;22.08;;;14.00;99.90;;;;;;4990328;28;20046;-70
2023/07/04 05:14:56;;;;;;;24.95;22.55;;;13.90;99.90;;;;;;4996514;28;20128;-70
2023/07/04 05:17:24;;;;;;;25.33;22.80;;;13.90;99.90;;;;;;4994051;28;20072;-70
2023/07/04 05:19:51;;;;;;;25.42;23.13;;;13.90;99.90;;;;;;4997348;28;20026;-68
2023/07/04 05:22:19;;;;;;;26.48;23.52;;;14.00;99.90;;;;;;5013079;28;20042;-68
2023/07/04 05:24:46;;;;;;;26.25;23.90;;;14.10;99.90;;;;;;5017548;28;20049;-68
2023/07/04 05:27:15;;;;;;;25.85;23.48;;;14.10;99.90;;;;;;5013073;28;20415;-69
2023/07/04 05:29:45;;;;;;;27.58;24.23;;;14.30;99.90;;;;;;5003647;28;20066;-69
2023/07/04 05:32:12;;;;;;;27.95;25.15;;;14.30;99.90;;;;;;4990690;28;20500;-69
2023/07/04 05:34:39;;;;;;;26.38;24.08;;;14.30;99.90;;;;;;4991086;28;20127;-69
2023/07/04 05:37:07;;;;;;;27.40;24.55;;;14.40;99.90;;;;;;4995202;28;20082;-69
2023/07/04 05:39:34;;;;;;;27.45;24.83;;;14.40;99.90;;;;;;4992363;28;20105;-68
2023/07/04 05:42:01;;;;;;;27.60;24.98;;;14.60;99.90;;;;;;4992622;28;20042;-69
2023/07/04 05:44:28;;;;;;;29.33;26.58;;;14.60;99.90;;;;;;4991967;28;20042;-70
2023/07/04 05:46:55;;;;;;;29.70;26.60;;;14.80;99.90;;;;;;4991757;28;20057;-68
2023/07/04 05:49:21;;;;;;;28.58;25.52;;;15.00;99.90;;;;;;4992828;28;20038;-69
2023/07/04 05:51:48;;;;;;;30.13;25.98;;;15.20;99.90;;;;;;4992748;28;20069;-69
2023/07/04 05:54:15;;;;;;;28.33;25.55;;;15.20;99.90;;;;;;4994725;28;20164;-68
2023/07/04 05:56:42;;;;;;;31.48;28.48;;;15.20;99.90;;;;;;4990321;28;20049;-68
2023/07/04 05:59:09;;;;;;;29.75;26.58;;;15.20;99.90;;;;;;4995092;28;20524;-69
2023/07/04 06:01:42;;;;;;;30.13;26.98;;;15.10;99.90;;;;;;4991544;28;20108;-69
2023/07/04 06:04:10;;;;;;;33.33;25.77;;;15.20;99.90;;;;;;4991155;28;20631;-68
2023/07/04 06:06:49;;;;;;;29.13;26.13;;;15.30;99.90;;;;;;4990856;28;20053;-70
2023/07/04 06:09:17;;;;;;;30.33;27.08;;;15.40;99.90;;;;;;4991883;28;20129;-69
2023/07/04 06:11:46;;;;;;;29.60;26.67;;;15.70;99.90;;;;;;4980975;28;20042;-70
2023/07/04 06:14:27;;;;;;;29.02;26.42;;;15.80;99.90;;;;;;4992073;28;20133;-69
2023/07/04 06:16:59;;;;;;;29.27;26.58;;;15.90;99.90;;;;;;4991757;28;20045;-69
2023/07/04 06:19:25;;;;;;;30.55;27.67;;;16.00;99.90;;;;;;4993208;28;20046;-70
2023/07/04 06:21:52;;;;;;;29.10;26.58;;;16.00;99.90;;;;;;4991094;28;20097;-70
2023/07/04 06:24:20;;;;;;;30.90;28.27;;;15.80;99.90;;;;;;4992532;28;20121;-70
2023/07/04 06:26:48;;;;;;;30.88;28.02;;;15.50;99.90;;;;;;4989530;28;20125;-69
2023/07/04 06:29:15;;;;;;;30.33;27.52;;;15.40;99.90;;;;;;4994995;28;20678;-69
2023/07/04 06:31:42;;;;;;;30.63;27.55;;;15.30;99.90;;;;;;4989651;28;20038;-70
2023/07/04 06:34:11;;;;;;;30.45;27.08;;;15.30;99.90;;;;;;4993080;28;20050;-69
2023/07/04 06:36:38;;;;;;;32.30;28.67;;;15.40;99.90;;;;;;4995522;28;20661;-69
2023/07/04 06:39:05;;;;;;;31.67;28.45;;;15.30;99.90;;;;;;5006519;28;20054;-69
2023/07/04 06:41:32;;;;;;;31.88;28.95;;;15.20;99.90;;;;;;5002959;28;20054;-68
2023/07/04 06:43:59;;;;;;;31.02;27.95;;;15.20;99.90;;;;;;5005487;28;20045;-70
2023/07/04 06:46:26;;;;;;;30.38;27.48;;;15.10;99.90;;;;;;5006391;28;20490;-69
2023/07/04 06:48:53;;;;;;;31.80;28.48;;;15.10;99.90;;;;;;5000838;28;20056;-68
2023/07/04 06:51:20;;;;;;;29.50;26.95;;;15.00;99.90;;;;;;5000666;28;20164;-69
2023/07/04 06:53:48;;;;;;;30.45;27.58;;;15.00;99.90;;;;;;5002694;28;20046;-68
2023/07/04 06:56:17;;;;;;;30.73;27.45;;;15.00;99.90;;;;;;5006810;28;20157;-69
2023/07/04 06:58:49;;;;;;;28.17;25.65;;;15.00;99.90;;;;;;4999805;28;20100;-68
2023/07/04 07:01:17;;;;;;;25.77;23.55;;;14.90;99.90;;;;;;5001599;28;20062;-69
2023/07/04 07:03:44;;;;;;;25.27;22.80;;;14.60;99.90;;;;;;4997415;28;20228;-69
2023/07/04 07:06:12;;;;;;;26.08;23.58;;;14.20;99.90;;;;;;5000987;28;20583;-69
2023/07/04 07:08:40;;;;;;;25.30;23.15;;;13.90;99.90;;;;;;4994994;28;20049;-70
2023/07/04 07:11:13;;;;;;;25.05;22.85;;;13.80;99.90;;;;;;5000471;28;20397;-69
2023/07/04 07:13:41;;;;;;;26.90;23.58;;;13.50;99.90;;;;;;4996190;28;20096;-69
2023/07/04 07:16:15;;;;;;;23.92;21.65;;;13.40;99.90;;;;;;5000240;28;20448;-70
2023/07/04 07:18:43;;;;;;;23.33;20.95;;;13.40;99.90;;;;;;4998947;28;20077;-69
2023/07/04 07:21:12;;;;;;;22.65;20.10;;;13.50;99.90;;;;;;4994781;28;20049;-69
2023/07/04 07:23:40;;;;;;;21.25;19.27;;;13.70;99.90;;;;;;4998428;28;20050;-68
2023/07/04 07:26:09;;;;;;;21.98;19.90;;;13.70;99.90;;;;;;4999267;28;20045;-69
2023/07/04 07:28:38;;;;;;;20.60;18.88;;;13.80;99.90;;;;;;4998892;28;20608;-69
2023/07/04 07:31:16;;;;;;;22.38;20.30;;;13.80;99.90;;;;;;4998426;28;20096;-70
2023/07/04 07:33:48;;;;;;;21.83;19.63;;;13.80;99.90;;;;;;4999674;28;20037;-69
2023/07/04 07:36:20;;;;;;;24.15;20.08;;;13.90;99.90;;;;;;4994334;28;20112;-69
2023/07/04 07:38:48;;;;;;;24.83;22.25;;;14.10;99.90;;;;;;4992714;28;20699;-69
2023/07/04 07:41:16;;;;;;;25.33;22.67;;;14.50;99.90;;;;;;4997212;28;20080;-69
2023/07/04 07:43:43;;;;;;;29.15;26.40;;;14.80;99.90;;;;;;4983480;28;20050;-69
2023/07/04 07:46:15;;;;;;;30.48;27.88;;;15.20;99.90;;;;;;4986593;28;20504;-69
2023/07/04 07:48:43;;;;;;;32.65;29.63;;;15.60;99.90;;;;;;4993838;28;20157;-69
2023/07/04 07:51:12;;;;;;;31.80;29.17;;;15.70;99.90;;;;;;4986477;28;20512;-69
2023/07/04 07:53:41;;;;;;;32.92;29.67;;;16.00;99.90;;;;;;4985949;28;20069;-70
2023/07/04 07:56:10;;;;;;;29.85;27.20;;;16.40;99.90;;;;;;5000594;28;20058;-71
2023/07/04 07:58:37;;;;;;;30.92;27.88;;;16.70;99.90;;;;;;4985932;28;20236;-70
2023/07/04 08:01:25;;;;;;;33.33;30.00;;;16.70;99.90;;;;;;4988284;28;20048;-70
2023/07/04 08:03:52;;;;;;;33.70;30.48;;;16.40;99.90;;;;;;4973543;28;20072;-70
2023/07/04 08:06:23;;;;;;;34.45;31.08;;;16.10;99.90;;;;;;4991235;28;20042;-70
2023/07/04 08:08:51;;;;;;;35.97;32.33;;;16.20;99.90;;;;;;4990092;28;20048;-69
2023/07/04 08:11:19;;;;;;;33.22;29.98;;;16.60;99.90;;;;;;4990132;28;20042;-71
2023/07/04 08:13:46;;;;;;;32.90;29.73;;;17.00;99.90;;;;;;4985408;28;20168;-69
2023/07/04 08:16:21;;;;;;;31.45;28.60;;;17.00;99.90;;;;;;4975644;28;20696;-70
2023/07/04 08:18:49;;;;;;;;;;;17.00;99.90;;;;;;4992805;28;20072;-67
2023/07/04 08:21:16;;;;;;;31.75;28.73;;;17.10;99.90;;;;;;4993816;28;19984;-70
2023/07/04 08:23:44;;;;;;;34.15;31.27;;;17.20;99.90;;;;;;4990124;28;20124;-70
2023/07/04 08:26:18;;;;;;;29.52;27.13;;;17.10;99.90;;;;;;4991082;28;20053;-70
2023/07/04 08:28:45;;;;;;;;;;;17.40;99.90;;;;;;4991915;28;20129;-69
2023/07/04 08:31:13;;;;;;;32.58;29.77;;;17.40;99.90;;;;;;4991350;28;20026;-67
2023/07/04 08:33:40;;;;;;;34.58;31.63;;;17.50;99.90;;;;;;4989416;28;20050;-68
2023/07/04 08:36:09;;;;;;;29.63;26.67;;;17.80;99.90;;;;;;4989990;28;20046;-68
2023/07/04 08:38:36;;;;;;;31.00;28.02;;;17.80;99.90;;;;;;4992155;28;20582;-67
2023/07/04 08:41:03;;;;;;;29.67;27.20;;;17.50;99.90;;;;;;4990363;28;20853;-72
2023/07/04 08:43:44;;;;;;;32.20;29.42;;;17.30;99.90;;;;;;4986610;28;20141;-69
2023/07/04 08:46:13;;;;;;;31.48;28.10;;;17.20;99.90;;;;;;4991164;28;20046;-71
2023/07/04 08:48:42;;;;;;;33.25;30.42;;;16.90;99.90;;;;;;4991355;28;20041;-70
2023/07/04 08:51:14;;;;;;;34.03;31.52;;;16.90;99.90;;;;;;4990838;28;20080;-70
2023/07/04 08:53:43;;;;;;;33.28;30.63;;;17.20;99.90;;;;;;4987600;28;20052;-69
2023/07/04 08:56:31;;;;;;;29.77;26.77;;;17.80;99.90;;;;;;4972475;28;20508;-69
2023/07/04 08:59:14;;;;;;;32.15;29.52;;;17.80;99.90;;;;;;4990346;28;20053;-70
2023/07/04 09:02:26;;;;;;;32.83;30.10;;;18.00;99.90;;;;;;4989890;28;20145;-70
2023/07/04 09:05:05;;;;;;;35.42;32.67;;;18.40;99.90;;;;;;4966134;28;20052;-69
2023/07/04 09:07:45;;;;;;;34.42;31.63;;;18.70;99.90;;;;;;4990337;28;20049;-69
2023/07/04 09:10:44;;;;;;;33.65;31.40;;;18.60;99.90;;;;;;4990012;28;20917;-70
2023/07/04 09:13:15;;;;;;;28.58;25.77;;;19.10;99.90;;;;;;4991300;28;20531;-71
2023/07/04 09:15:47;;;;;;;30.15;27.65;;;19.30;99.90;;;;;;4988460;28;20049;-69
2023/07/04 09:18:32;;;;;;;32.72;30.40;;;18.90;99.90;;;;;;4990719;28;20046;-69
2023/07/04 09:21:15;;;;;;;32.53;30.00;;;18.40;99.90;;;;;;4988638;28;20050;-69
2023/07/04 09:23:44;;;;;;;34.72;32.08;;;18.20;99.90;;;;;;4988547;28;20163;-70
2023/07/04 09:26:17;;;;;;;30.25;27.98;;;18.30;99.90;;;;;;4992294;28;20100;-70
2023/07/04 09:28:46;;;;;;;34.45;31.48;;;18.50;99.90;;;;;;4992554;28;20104;-68
2023/07/04 09:31:21;;;;;;;31.40;28.48;;;18.50;99.90;;;;;;4994467;28;21195;-69
2023/07/04 09:33:53;;;;;;;35.22;32.38;;;18.70;99.90;;;;;;4991607;28;20722;-69
2023/07/04 09:36:25;;;;;;;26.23;23.63;;;18.90;99.90;;;;;;4996583;28;20041;-68
2023/07/04 09:38:57;;;;;;;29.38;26.75;;;19.10;99.90;;;;;;4992911;28;20137;-70
2023/07/04 09:41:26;;;;;;;31.02;27.85;;;18.90;99.90;;;;;;4992646;28;20049;-70
2023/07/04 09:43:55;;;;;;;34.70;31.85;;;18.70;99.90;;;;;;4988272;28;20403;-69
2023/07/04 09:46:30;;;;;;;29.50;26.40;;;18.70;99.90;;;;;;4994460;28;20042;-69
2023/07/04 09:49:22;;;;;;;29.50;26.88;;;18.60;99.90;;;;;;4991185;28;20077;-70
2023/07/04 09:52:00;;;;;;;32.53;29.85;;;18.60;99.90;;;;;;4991993;28;20048;-70
2023/07/04 09:54:27;;;;;;;32.10;29.25;;;18.60;99.90;;;;;;5004297;28;20041;-69
2023/07/04 09:56:54;;;;;;;31.92;29.15;;;18.50;99.90;;;;;;5007898;28;20049;-69
2023/07/04 09:59:29;;;;;;;32.75;30.17;;;18.60;99.90;;;;;;5014666;28;20116;-69
2023/07/04 10:02:10;;;;;;;;;;;18.60;99.90;;;;;;4996487;28;20623;-70
2023/07/04 10:04:40;;;;;;;29.98;27.65;;;18.50;99.90;;;;;;4993119;28;19931;-70
2023/07/04 10:07:15;;;;;;;32.15;29.42;;;18.90;99.90;;;;;;4992654;28;20038;-70
2023/07/04 10:09:56;;;;;;;34.08;30.83;;;19.30;99.90;;;;;;4991897;28;20050;-70
2023/07/04 10:12:24;;;;;;;30.58;28.23;;;19.30;99.90;;;;;;4975193;28;20046;-70
2023/07/04 10:14:54;;;;;;;32.80;29.65;;;19.10;99.90;;;;;;4993442;28;20046;-69
2023/07/04 10:17:32;;;;;;;32.38;29.67;;;18.80;99.90;;;;;;4991621;28;20060;-70
2023/07/04 10:20:11;;;;;;;36.38;33.95;;;18.70;99.90;;;;;;4992945;28;20042;-70
2023/07/04 10:22:52;;;;;;;35.78;32.65;;;18.80;99.90;;;;;;4989456;28;20618;-70
2023/07/04 10:25:22;;;;;;;31.55;28.83;;;19.40;99.90;;;;;;4990343;28;20188;-68
2023/07/04 10:27:52;;;;;;;31.17;28.75;;;19.50;99.90;;;;;;4989551;28;20854;-69
2023/07/04 10:30:24;;;;;;;32.55;29.88;;;19.60;99.90;;;;;;4992380;28;20042;-67
2023/07/04 10:32:56;;;;;;;36.35;33.50;;;19.30;99.90;;;;;;4989205;28;20038;-68
2023/07/04 10:35:32;;;;;;;33.33;30.85;;;19.10;99.90;;;;;;4995099;28;20050;-69
2023/07/04 10:38:04;;;;;;;36.10;33.60;;;19.10;99.90;;;;;;4991026;28;20135;-69
2023/07/04 10:40:35;;;;;;;37.10;34.35;;;19.50;99.90;;;;;;4991278;28;20747;-69
2023/07/04 10:43:12;;;;;;;36.85;34.28;;;19.60;99.90;;;;;;4984496;28;20088;-69
2023/07/04 10:45:41;;;;;;;31.13;28.98;;;20.00;99.90;;;;;;4990380;28;20077;-70
2023/07/04 10:48:32;;;;;;;34.50;32.00;;;19.90;99.90;;;;;;4994047;28;20148;-68
2023/07/04 10:51:22;;;;;;;35.80;33.13;;;19.80;99.90;;;;;;4993800;28;20046;-69
2023/07/04 10:53:49;;;;;;;36.78;33.72;;;20.10;99.90;;;;;;4992623;28;20105;-70
2023/07/04 10:56:24;;;;;;;32.03;29.10;;;20.50;99.90;;;;;;4998477;28;20109;-69
2023/07/04 10:58:56;;;;;;;35.05;32.67;;;20.70;99.90;;;;;;4996932;28;20072;-68
2023/07/04 11:01:35;;;;;;;36.00;33.35;;;20.70;99.90;;;;;;4995740;28;20034;-69
2023/07/04 11:04:20;;;;;;;32.45;29.83;;;20.30;99.90;;;;;;4987687;28;20066;-69
2023/07/04 11:06:58;;;;;;;31.45;28.95;;;20.20;99.90;;;;;;4996225;28;20122;-70
2023/07/04 11:09:26;;;;;;;32.80;29.95;;;20.10;99.90;;;;;;4999279;28;20046;-68
2023/07/04 11:12:02;;;;;;;32.53;30.05;;;20.10;99.90;;;;;;4999411;28;20133;-68
2023/07/04 11:14:31;;;;;;;33.00;30.25;;;20.20;99.90;;;;;;5002215;28;20046;-69
2023/07/04 11:17:03;;;;;;;32.00;29.58;;;20.40;99.90;;;;;;4993991;28;20054;-68
2023/07/04 11:19:34;;;;;;;35.22;32.30;;;20.50;99.90;;;;;;4993361;28;20570;-70
2023/07/04 11:22:02;;;;;;;34.60;32.10;;;20.70;99.90;;;;;;4991145;28;20039;-70
2023/07/04 11:24:39;;;;;;;35.53;32.83;;;20.80;99.90;;;;;;4992233;28;20046;-69
2023/07/04 11:27:18;;;;;;;30.60;28.30;;;21.30;99.90;;;;;;4992412;28;20041;-71
2023/07/04 11:29:55;;;;;;;30.60;28.33;;;21.50;99.90;;;;;;4988204;28;20054;-68
2023/07/04 11:32:22;;;;;;;36.10;33.65;;;21.20;99.90;;;;;;4992195;28;20050;-69
2023/07/04 11:35:15;;;;;;;30.83;28.42;;;21.10;99.90;;;;;;5007325;28;20122;-68
2023/07/04 11:37:54;;;;;;;37.00;34.53;;;21.40;99.90;;;;;;4993954;28;20069;-70
2023/07/04 11:40:26;;;;;;;35.53;33.10;;;21.40;99.90;;;;;;4992800;28;20128;-68
2023/07/04 11:42:58;;;;;;;38.30;35.45;;;21.60;99.90;;;;;;4989008;28;20178;-69
2023/07/04 11:45:29;;;;;;;39.00;35.75;;;21.90;99.90;;;;;;4991360;28;20052;-68
2023/07/04 11:48:01;;;;;;;29.52;27.40;;;21.60;99.90;;;;;;4991036;28;20041;-69
2023/07/04 11:50:40;;;;;;;37.47;34.72;;;21.70;99.90;;;;;;4991624;28;20049;-68
2023/07/04 11:53:14;;;;;;;38.10;34.75;;;21.70;99.90;;;;;;4986786;28;20060;-67
2023/07/04 11:55:42;;;;;;;35.42;32.95;;;21.80;99.90;;;;;;4986984;28;20042;-68
2023/07/04 11:58:08;;;;;;;39.38;36.33;;;22.20;99.90;;;;;;4990689;28;20042;-68
2023/07/04 12:00:38;;;;;;;37.95;35.47;;;22.20;99.90;;;;;;4992112;28;20160;-67
2023/07/04 12:03:17;;;;;;;38.35;35.67;;;22.40;99.90;;;;;;4990231;28;20113;-67
2023/07/04 12:05:58;;;;;;;37.85;35.40;;;22.40;99.90;;;;;;4992234;28;20042;-68
2023/07/04 12:08:31;;;;;;;41.50;38.50;;;22.20;99.90;;;;;;5007270;28;20050;-68
2023/07/04 12:11:08;;;;;;;36.47;34.13;;;22.20;99.90;;;;;;4989762;28;20500;-67
2023/07/04 12:13:39;;;;;;;39.13;36.05;;;21.90;99.90;;;;;;4989975;28;20080;-68
2023/07/04 12:16:07;;;;;;;39.00;36.10;;;21.90;99.90;;;;;;4991598;28;20115;-70
2023/07/04 12:18:39;;;;;;;39.67;37.20;;;22.20;99.90;;;;;;4994128;28;20167;-69
2023/07/04 12:21:08;;;;;;;40.60;37.65;;;22.40;99.90;;;;;;5005320;28;20117;-69
2023/07/04 12:23:35;;;;;;;40.67;37.80;;;22.50;99.90;;;;;;4993198;28;20104;-72
2023/07/04 12:26:03;;;;;;;37.47;34.50;;;22.40;99.90;;;;;;4991712;28;20069;-69
2023/07/04 12:28:31;;;;;;;32.88;30.67;;;22.20;99.90;;;;;;4993451;28;20751;-70
2023/07/04 12:31:00;;;;;;;39.70;37.20;;;22.00;99.90;;;;;;4991806;28;20042;-69
2023/07/04 12:33:48;;;;;;;33.92;31.35;;;22.10;99.90;;;;;;4994244;28;20658;-70
2023/07/04 12:36:16;;;;;;;40.10;37.58;;;22.30;99.90;;;;;;4991223;28;20598;-69
2023/07/04 12:38:54;;;;;;;39.33;36.85;;;22.20;99.90;;;;;;4994288;28;20045;-71
2023/07/04 12:41:23;;;;;;;36.78;34.17;;;22.10;99.90;;;;;;4996582;28;20104;-70
2023/07/04 12:44:00;;;;;;;40.80;38.28;;;22.00;99.90;;;;;;4992152;28;20068;-70
2023/07/04 12:46:31;;;;;;;41.10;38.42;;;21.90;99.90;;;;;;4993202;28;20499;-71